sensor_id;sensor_type;location;lat;lon;timestamp;temperature;humidity
69944;DHT22;57257;48.408;-4.498;2024-02-14T00:00:35;14.12;82.72
69944;DHT22;57257;48.408;-4.498;2024-02-14T00:03:00;14.18;82.56
69944;DHT22;57257;48.408;-4.498;2024-02-14T00:05:28;14.17;82.42
69944;DHT22;57257;48.408;-4.498;2024-02-14T00:07:54;14.14;82.40
69944;DHT22;57257;48.408;-4.498;2024-02-14T00:10:19;14.14;82.41
69944;DHT22;57257;48.408;-4.498;2024-02-14T00:12:45;14.14;82.35
69944;DHT22;57257;48.408;-4.498;2024-02-14T00:15:11;14.13;82.20
69944;DHT22;57257;48.408;-4.498;2024-02-14T00:17:37;14.12;82.12
69944;DHT22;57257;48.408;-4.498;2024-02-14T00:20:03;14.16;82.24
69944;DHT22;57257;48.408;-4.498;2024-02-14T00:22:29;14.14;82.21
69944;DHT22;57257;48.408;-4.498;2024-02-14T00:24:54;14.09;82.18
69944;DHT22;57257;48.408;-4.498;2024-02-14T00:27:20;14.12;82.25
69944;DHT22;57257;48.408;-4.498;2024-02-14T00:29:45;14.17;82.11
69944;DHT22;57257;48.408;-4.498;2024-02-14T00:32:14;14.14;82.03
69944;DHT22;57257;48.408;-4.498;2024-02-14T00:34:40;14.12;81.97
69944;DHT22;57257;48.408;-4.498;2024-02-14T00:37:06;14.09;82.04
69944;DHT22;57257;48.408;-4.498;2024-02-14T00:39:31;14.04;82.15
69944;DHT22;57257;48.408;-4.498;2024-02-14T00:41:56;14.04;82.15
69944;DHT22;57257;48.408;-4.498;2024-02-14T00:44:22;14.07;82.09
69944;DHT22;57257;48.408;-4.498;2024-02-14T00:46:48;14.09;82.06
69944;DHT22;57257;48.408;-4.498;2024-02-14T00:49:14;14.07;82.18
69944;DHT22;57257;48.408;-4.498;2024-02-14T00:51:39;14.06;82.25
69944;DHT22;57257;48.408;-4.498;2024-02-14T00:54:05;14.00;82.32
69944;DHT22;57257;48.408;-4.498;2024-02-14T00:56:31;14.04;82.49
69944;DHT22;57257;48.408;-4.498;2024-02-14T00:58:56;14.03;82.44
69944;DHT22;57257;48.408;-4.498;2024-02-14T01:01:22;14.04;82.48
69944;DHT22;57257;48.408;-4.498;2024-02-14T01:03:48;13.99;82.64
69944;DHT22;57257;48.408;-4.498;2024-02-14T01:06:14;13.96;82.69
69944;DHT22;57257;48.408;-4.498;2024-02-14T01:08:43;14.00;82.71
69944;DHT22;57257;48.408;-4.498;2024-02-14T01:11:09;13.99;82.85
69944;DHT22;57257;48.408;-4.498;2024-02-14T01:13:34;13.99;82.88
69944;DHT22;57257;48.408;-4.498;2024-02-14T01:16:00;13.97;82.83
69944;DHT22;57257;48.408;-4.498;2024-02-14T01:18:25;13.94;82.94
69944;DHT22;57257;48.408;-4.498;2024-02-14T01:20:51;13.97;83.08
69944;DHT22;57257;48.408;-4.498;2024-02-14T01:23:16;13.93;83.12
69944;DHT22;57257;48.408;-4.498;2024-02-14T01:25:42;13.93;83.15
69944;DHT22;57257;48.408;-4.498;2024-02-14T01:28:09;13.89;83.30
69944;DHT22;57257;48.408;-4.498;2024-02-14T01:30:35;13.93;83.17
69944;DHT22;57257;48.408;-4.498;2024-02-14T01:33:01;13.87;83.29
69944;DHT22;57257;48.408;-4.498;2024-02-14T01:35:29;13.87;83.27
69944;DHT22;57257;48.408;-4.498;2024-02-14T01:37:54;13.89;83.41
69944;DHT22;57257;48.408;-4.498;2024-02-14T01:40:20;13.86;83.47
69944;DHT22;57257;48.408;-4.498;2024-02-14T01:42:46;13.87;83.55
69944;DHT22;57257;48.408;-4.498;2024-02-14T01:45:11;13.91;83.62
69944;DHT22;57257;48.408;-4.498;2024-02-14T01:47:37;13.93;83.67
69944;DHT22;57257;48.408;-4.498;2024-02-14T01:50:05;13.93;83.70
69944;DHT22;57257;48.408;-4.498;2024-02-14T01:52:34;13.94;83.86
69944;DHT22;57257;48.408;-4.498;2024-02-14T01:55:02;13.99;83.73
69944;DHT22;57257;48.408;-4.498;2024-02-14T01:57:31;13.99;83.81
69944;DHT22;57257;48.408;-4.498;2024-02-14T01:59:58;14.02;83.80
69944;DHT22;57257;48.408;-4.498;2024-02-14T02:02:25;14.03;83.57
69944;DHT22;57257;48.408;-4.498;2024-02-14T02:04:52;13.97;83.68
69944;DHT22;57257;48.408;-4.498;2024-02-14T02:07:18;14.02;83.75
69944;DHT22;57257;48.408;-4.498;2024-02-14T02:09:45;14.03;83.75
69944;DHT22;57257;48.408;-4.498;2024-02-14T02:12:10;14.02;83.77
69944;DHT22;57257;48.408;-4.498;2024-02-14T02:14:36;14.00;83.71
69944;DHT22;57257;48.408;-4.498;2024-02-14T02:17:02;14.04;83.60
69944;DHT22;57257;48.408;-4.498;2024-02-14T02:19:30;14.03;83.62
69944;DHT22;57257;48.408;-4.498;2024-02-14T02:21:56;14.03;83.54
69944;DHT22;57257;48.408;-4.498;2024-02-14T02:24:21;14.02;83.51
69944;DHT22;57257;48.408;-4.498;2024-02-14T02:26:46;13.99;83.53
69944;DHT22;57257;48.408;-4.498;2024-02-14T02:29:12;14.00;83.41
69944;DHT22;57257;48.408;-4.498;2024-02-14T02:31:37;13.99;83.46
69944;DHT22;57257;48.408;-4.498;2024-02-14T02:34:03;14.02;83.35
69944;DHT22;57257;48.408;-4.498;2024-02-14T02:36:28;14.03;83.26
69944;DHT22;57257;48.408;-4.498;2024-02-14T02:38:55;14.00;83.33
69944;DHT22;57257;48.408;-4.498;2024-02-14T02:41:21;14.02;83.32
69944;DHT22;57257;48.408;-4.498;2024-02-14T02:43:47;13.99;83.46
69944;DHT22;57257;48.408;-4.498;2024-02-14T02:46:15;13.96;83.42
69944;DHT22;57257;48.408;-4.498;2024-02-14T02:48:41;13.99;83.30
69944;DHT22;57257;48.408;-4.498;2024-02-14T02:51:06;13.99;83.27
69944;DHT22;57257;48.408;-4.498;2024-02-14T02:53:32;14.00;83.23
69944;DHT22;57257;48.408;-4.498;2024-02-14T02:55:57;13.97;83.17
69944;DHT22;57257;48.408;-4.498;2024-02-14T02:58:24;13.99;83.05
69944;DHT22;57257;48.408;-4.498;2024-02-14T03:00:50;14.04;82.96
69944;DHT22;57257;48.408;-4.498;2024-02-14T03:03:15;14.03;82.88
69944;DHT22;57257;48.408;-4.498;2024-02-14T03:05:44;13.97;82.87
69944;DHT22;57257;48.408;-4.498;2024-02-14T03:08:10;13.96;82.95
69944;DHT22;57257;48.408;-4.498;2024-02-14T03:10:40;14.00;82.86
69944;DHT22;57257;48.408;-4.498;2024-02-14T03:13:06;13.99;82.77
69944;DHT22;57257;48.408;-4.498;2024-02-14T03:15:36;13.99;82.77
69944;DHT22;57257;48.408;-4.498;2024-02-14T03:18:02;13.96;82.74
69944;DHT22;57257;48.408;-4.498;2024-02-14T03:20:33;13.94;82.76
69944;DHT22;57257;48.408;-4.498;2024-02-14T03:22:58;13.96;82.78
69944;DHT22;57257;48.408;-4.498;2024-02-14T03:25:24;13.99;82.68
69944;DHT22;57257;48.408;-4.498;2024-02-14T03:27:49;13.99;82.70
69944;DHT22;57257;48.408;-4.498;2024-02-14T03:30:18;13.97;82.73
69944;DHT22;57257;48.408;-4.498;2024-02-14T03:32:44;13.96;82.67
69944;DHT22;57257;48.408;-4.498;2024-02-14T03:35:12;13.96;82.79
69944;DHT22;57257;48.408;-4.498;2024-02-14T03:37:40;13.93;82.75
69944;DHT22;57257;48.408;-4.498;2024-02-14T03:40:06;13.93;82.80
69944;DHT22;57257;48.408;-4.498;2024-02-14T03:42:33;13.93;82.91
69944;DHT22;57257;48.408;-4.498;2024-02-14T03:44:59;13.91;82.86
69944;DHT22;57257;48.408;-4.498;2024-02-14T03:47:31;13.91;82.92
69944;DHT22;57257;48.408;-4.498;2024-02-14T03:49:58;13.91;82.80
69944;DHT22;57257;48.408;-4.498;2024-02-14T03:52:24;13.90;82.87
69944;DHT22;57257;48.408;-4.498;2024-02-14T03:54:50;13.90;82.89
69944;DHT22;57257;48.408;-4.498;2024-02-14T03:57:16;13.91;82.73
69944;DHT22;57257;48.408;-4.498;2024-02-14T03:59:46;13.93;82.76
69944;DHT22;57257;48.408;-4.498;2024-02-14T04:02:11;13.94;82.61
69944;DHT22;57257;48.408;-4.498;2024-02-14T04:04:37;13.91;82.55
69944;DHT22;57257;48.408;-4.498;2024-02-14T04:07:04;13.90;82.56
69944;DHT22;57257;48.408;-4.498;2024-02-14T04:09:32;13.93;82.41
69944;DHT22;57257;48.408;-4.498;2024-02-14T04:11:58;13.94;82.38
69944;DHT22;57257;48.408;-4.498;2024-02-14T04:14:23;13.93;82.53
69944;DHT22;57257;48.408;-4.498;2024-02-14T04:16:49;13.99;82.47
69944;DHT22;57257;48.408;-4.498;2024-02-14T04:19:14;13.96;82.40
69944;DHT22;57257;48.408;-4.498;2024-02-14T04:21:42;13.93;82.32
69944;DHT22;57257;48.408;-4.498;2024-02-14T04:24:08;13.99;82.33
69944;DHT22;57257;48.408;-4.498;2024-02-14T04:26:34;14.02;82.39
69944;DHT22;57257;48.408;-4.498;2024-02-14T04:28:59;14.03;82.04
69944;DHT22;57257;48.408;-4.498;2024-02-14T04:31:26;13.99;82.08
69944;DHT22;57257;48.408;-4.498;2024-02-14T04:33:52;14.00;82.14
69944;DHT22;57257;48.408;-4.498;2024-02-14T04:36:19;14.00;82.05
69944;DHT22;57257;48.408;-4.498;2024-02-14T04:38:46;13.99;82.06
69944;DHT22;57257;48.408;-4.498;2024-02-14T04:41:12;13.94;82.07
69944;DHT22;57257;48.408;-4.498;2024-02-14T04:43:38;13.94;82.10
69944;DHT22;57257;48.408;-4.498;2024-02-14T04:46:04;13.96;82.20
69944;DHT22;57257;48.408;-4.498;2024-02-14T04:48:32;13.96;82.26
69944;DHT22;57257;48.408;-4.498;2024-02-14T04:50:58;13.99;82.25
69944;DHT22;57257;48.408;-4.498;2024-02-14T04:53:23;14.00;82.09
69944;DHT22;57257;48.408;-4.498;2024-02-14T04:55:49;13.94;82.16
69944;DHT22;57257;48.408;-4.498;2024-02-14T04:58:15;13.94;82.27
69944;DHT22;57257;48.408;-4.498;2024-02-14T05:00:41;13.90;82.25
69944;DHT22;57257;48.408;-4.498;2024-02-14T05:03:06;13.94;82.32
69944;DHT22;57257;48.408;-4.498;2024-02-14T05:05:32;13.97;82.26
69944;DHT22;57257;48.408;-4.498;2024-02-14T05:07:59;14.02;82.04
69944;DHT22;57257;48.408;-4.498;2024-02-14T05:10:24;13.99;82.00
69944;DHT22;57257;48.408;-4.498;2024-02-14T05:12:50;14.00;82.06
69944;DHT22;57257;48.408;-4.498;2024-02-14T05:15:15;14.02;82.05
69944;DHT22;57257;48.408;-4.498;2024-02-14T05:17:42;14.02;82.18
69944;DHT22;57257;48.408;-4.498;2024-02-14T05:20:09;14.03;82.09
69944;DHT22;57257;48.408;-4.498;2024-02-14T05:22:36;14.00;82.20
69944;DHT22;57257;48.408;-4.498;2024-02-14T05:25:02;14.06;82.08
69944;DHT22;57257;48.408;-4.498;2024-02-14T05:27:28;14.03;82.02
69944;DHT22;57257;48.408;-4.498;2024-02-14T05:29:53;14.09;81.89
69944;DHT22;57257;48.408;-4.498;2024-02-14T05:32:18;14.10;81.85
69944;DHT22;57257;48.408;-4.498;2024-02-14T05:34:44;14.09;81.70
69944;DHT22;57257;48.408;-4.498;2024-02-14T05:37:09;14.04;81.75
69944;DHT22;57257;48.408;-4.498;2024-02-14T05:39:34;14.12;81.81
69944;DHT22;57257;48.408;-4.498;2024-02-14T05:42:00;14.10;81.59
69944;DHT22;57257;48.408;-4.498;2024-02-14T05:44:25;14.14;81.70
69944;DHT22;57257;48.408;-4.498;2024-02-14T05:46:52;14.13;81.67
69944;DHT22;57257;48.408;-4.498;2024-02-14T05:49:18;14.18;81.47
69944;DHT22;57257;48.408;-4.498;2024-02-14T05:51:43;14.17;81.29
69944;DHT22;57257;48.408;-4.498;2024-02-14T05:54:09;14.13;81.16
69944;DHT22;57257;48.408;-4.498;2024-02-14T05:56:34;14.20;80.96
69944;DHT22;57257;48.408;-4.498;2024-02-14T05:59:00;14.23;81.04
69944;DHT22;57257;48.408;-4.498;2024-02-14T06:01:25;14.27;80.81
69944;DHT22;57257;48.408;-4.498;2024-02-14T06:03:50;14.28;80.48
69944;DHT22;57257;48.408;-4.498;2024-02-14T06:06:16;14.31;80.35
69944;DHT22;57257;48.408;-4.498;2024-02-14T06:08:41;14.33;80.21
69944;DHT22;57257;48.408;-4.498;2024-02-14T06:11:07;14.25;80.33
69944;DHT22;57257;48.408;-4.498;2024-02-14T06:13:33;14.27;80.42
69944;DHT22;57257;48.408;-4.498;2024-02-14T06:15:59;14.28;80.26
69944;DHT22;57257;48.408;-4.498;2024-02-14T06:18:24;14.33;80.10
69944;DHT22;57257;48.408;-4.498;2024-02-14T06:20:49;14.28;80.11
69944;DHT22;57257;48.408;-4.498;2024-02-14T06:23:15;14.31;80.05
69944;DHT22;57257;48.408;-4.498;2024-02-14T06:25:41;14.31;80.10
69944;DHT22;57257;48.408;-4.498;2024-02-14T06:28:06;14.31;80.10
69944;DHT22;57257;48.408;-4.498;2024-02-14T06:30:31;14.25;80.27
69944;DHT22;57257;48.408;-4.498;2024-02-14T06:32:57;14.24;80.37
69944;DHT22;57257;48.408;-4.498;2024-02-14T06:35:26;14.24;80.38
69944;DHT22;57257;48.408;-4.498;2024-02-14T06:37:51;14.20;80.59
69944;DHT22;57257;48.408;-4.498;2024-02-14T06:40:16;14.25;80.72
69944;DHT22;57257;48.408;-4.498;2024-02-14T06:42:43;14.23;80.74
69944;DHT22;57257;48.408;-4.498;2024-02-14T06:45:08;14.25;80.90
69944;DHT22;57257;48.408;-4.498;2024-02-14T06:47:33;14.25;80.88
69944;DHT22;57257;48.408;-4.498;2024-02-14T06:49:59;14.20;80.99
69944;DHT22;57257;48.408;-4.498;2024-02-14T06:52:24;14.21;81.12
69944;DHT22;57257;48.408;-4.498;2024-02-14T06:54:50;14.23;81.24
69944;DHT22;57257;48.408;-4.498;2024-02-14T06:57:15;14.18;81.26
69944;DHT22;57257;48.408;-4.498;2024-02-14T06:59:41;14.14;81.50
69944;DHT22;57257;48.408;-4.498;2024-02-14T07:02:07;14.14;81.58
69944;DHT22;57257;48.408;-4.498;2024-02-14T07:04:32;14.14;81.70
69944;DHT22;57257;48.408;-4.498;2024-02-14T07:06:58;14.17;81.57
69944;DHT22;57257;48.408;-4.498;2024-02-14T07:09:23;14.18;81.58
69944;DHT22;57257;48.408;-4.498;2024-02-14T07:11:50;14.17;81.52
69944;DHT22;57257;48.408;-4.498;2024-02-14T07:14:16;14.16;81.50
69944;DHT22;57257;48.408;-4.498;2024-02-14T07:16:41;14.14;81.57
69944;DHT22;57257;48.408;-4.498;2024-02-14T07:19:06;14.16;81.47
69944;DHT22;57257;48.408;-4.498;2024-02-14T07:21:32;14.14;81.42
69944;DHT22;57257;48.408;-4.498;2024-02-14T07:23:58;14.13;81.49
69944;DHT22;57257;48.408;-4.498;2024-02-14T07:26:23;14.18;81.43
69944;DHT22;57257;48.408;-4.498;2024-02-14T07:28:49;14.17;81.51
69944;DHT22;57257;48.408;-4.498;2024-02-14T07:31:14;14.13;81.73
69944;DHT22;57257;48.408;-4.498;2024-02-14T07:33:40;14.16;81.56
69944;DHT22;57257;48.408;-4.498;2024-02-14T07:36:06;14.16;81.57
69944;DHT22;57257;48.408;-4.498;2024-02-14T07:38:33;14.18;81.60
69944;DHT22;57257;48.408;-4.498;2024-02-14T07:40:58;14.18;81.41
69944;DHT22;57257;48.408;-4.498;2024-02-14T07:43:23;14.17;81.58
69944;DHT22;57257;48.408;-4.498;2024-02-14T07:45:49;14.16;81.50
69944;DHT22;57257;48.408;-4.498;2024-02-14T07:48:15;14.10;81.46
69944;DHT22;57257;48.408;-4.498;2024-02-14T07:50:40;14.12;81.45
69944;DHT22;57257;48.408;-4.498;2024-02-14T07:53:06;14.06;81.42
69944;DHT22;57257;48.408;-4.498;2024-02-14T07:55:31;14.04;81.50
69944;DHT22;57257;48.408;-4.498;2024-02-14T07:57:58;14.06;81.54
69944;DHT22;57257;48.408;-4.498;2024-02-14T08:00:27;14.06;81.44
69944;DHT22;57257;48.408;-4.498;2024-02-14T08:02:55;14.06;81.40
69944;DHT22;57257;48.408;-4.498;2024-02-14T08:05:22;14.09;81.30
69944;DHT22;57257;48.408;-4.498;2024-02-14T08:07:48;14.06;81.06
69944;DHT22;57257;48.408;-4.498;2024-02-14T08:10:13;14.09;80.90
69944;DHT22;57257;48.408;-4.498;2024-02-14T08:12:39;14.09;80.98
69944;DHT22;57257;48.408;-4.498;2024-02-14T08:15:04;14.16;80.89
69944;DHT22;57257;48.408;-4.498;2024-02-14T08:17:32;14.16;80.68
69944;DHT22;57257;48.408;-4.498;2024-02-14T08:19:58;14.14;80.63
69944;DHT22;57257;48.408;-4.498;2024-02-14T08:22:24;14.18;80.41
69944;DHT22;57257;48.408;-4.498;2024-02-14T08:24:49;14.17;80.30
69944;DHT22;57257;48.408;-4.498;2024-02-14T08:27:15;14.16;80.16
69944;DHT22;57257;48.408;-4.498;2024-02-14T08:29:40;14.14;80.26
69944;DHT22;57257;48.408;-4.498;2024-02-14T08:32:06;14.17;80.26
69944;DHT22;57257;48.408;-4.498;2024-02-14T08:34:31;14.18;79.85
69944;DHT22;57257;48.408;-4.498;2024-02-14T08:36:57;14.24;79.72
69944;DHT22;57257;48.408;-4.498;2024-02-14T08:39:24;14.31;80.21
69944;DHT22;57257;48.408;-4.498;2024-02-14T08:41:49;14.54;80.51
69944;DHT22;57257;48.408;-4.498;2024-02-14T08:44:15;14.84;79.91
69944;DHT22;57257;48.408;-4.498;2024-02-14T08:46:41;15.09;79.46
69944;DHT22;57257;48.408;-4.498;2024-02-14T08:49:09;15.25;78.73
69944;DHT22;57257;48.408;-4.498;2024-02-14T08:51:35;15.32;78.64
69944;DHT22;57257;48.408;-4.498;2024-02-14T08:54:02;15.43;77.87
69944;DHT22;57257;48.408;-4.498;2024-02-14T08:56:33;15.54;77.57
69944;DHT22;57257;48.408;-4.498;2024-02-14T08:59:03;15.54;77.31
69944;DHT22;57257;48.408;-4.498;2024-02-14T09:01:31;15.57;77.17
69944;DHT22;57257;48.408;-4.498;2024-02-14T09:03:57;15.59;76.83
69944;DHT22;57257;48.408;-4.498;2024-02-14T09:06:25;15.59;77.22
69944;DHT22;57257;48.408;-4.498;2024-02-14T09:08:52;15.71;77.01
69944;DHT22;57257;48.408;-4.498;2024-02-14T09:11:19;15.82;76.03
69944;DHT22;57257;48.408;-4.498;2024-02-14T09:13:44;15.83;75.91
69944;DHT22;57257;48.408;-4.498;2024-02-14T09:16:13;15.87;76.10
69944;DHT22;57257;48.408;-4.498;2024-02-14T09:18:41;15.82;76.09
69944;DHT22;57257;48.408;-4.498;2024-02-14T09:21:07;15.84;76.50
69944;DHT22;57257;48.408;-4.498;2024-02-14T09:23:33;15.96;76.13
69944;DHT22;57257;48.408;-4.498;2024-02-14T09:26:00;16.00;75.67
69944;DHT22;57257;48.408;-4.498;2024-02-14T09:28:26;15.97;75.71
69944;DHT22;57257;48.408;-4.498;2024-02-14T09:30:52;15.89;75.88
69944;DHT22;57257;48.408;-4.498;2024-02-14T09:33:18;15.90;76.16
69944;DHT22;57257;48.408;-4.498;2024-02-14T09:35:45;15.97;75.99
69944;DHT22;57257;48.408;-4.498;2024-02-14T09:38:13;15.94;75.95
69944;DHT22;57257;48.408;-4.498;2024-02-14T09:40:43;15.98;75.70
69944;DHT22;57257;48.408;-4.498;2024-02-14T09:43:38;16.00;75.81
69944;DHT22;57257;48.408;-4.498;2024-02-14T09:46:06;16.06;76.08
69944;DHT22;57257;48.408;-4.498;2024-02-14T09:48:33;16.13;75.98
69944;DHT22;57257;48.408;-4.498;2024-02-14T09:50:59;16.16;75.84
69944;DHT22;57257;48.408;-4.498;2024-02-14T09:53:26;16.14;75.83
69944;DHT22;57257;48.408;-4.498;2024-02-14T09:55:54;16.18;75.90
69944;DHT22;57257;48.408;-4.498;2024-02-14T09:58:20;16.25;75.34
69944;DHT22;57257;48.408;-4.498;2024-02-14T10:00:45;16.31;75.36
69944;DHT22;57257;48.408;-4.498;2024-02-14T10:03:11;16.32;75.54
69944;DHT22;57257;48.408;-4.498;2024-02-14T10:05:36;16.34;75.32
69944;DHT22;57257;48.408;-4.498;2024-02-14T10:08:03;16.47;74.63
69944;DHT22;57257;48.408;-4.498;2024-02-14T10:10:31;16.58;73.71
69944;DHT22;57257;48.408;-4.498;2024-02-14T10:12:56;16.59;73.57
69944;DHT22;57257;48.408;-4.498;2024-02-14T10:15:23;16.51;74.10
69944;DHT22;57257;48.408;-4.498;2024-02-14T10:17:48;16.48;74.11
69944;DHT22;57257;48.408;-4.498;2024-02-14T10:20:17;16.62;73.73
69944;DHT22;57257;48.408;-4.498;2024-02-14T10:22:42;16.65;73.04
69944;DHT22;57257;48.408;-4.498;2024-02-14T10:25:09;16.65;73.09
69944;DHT22;57257;48.408;-4.498;2024-02-14T10:27:39;16.57;73.28
69944;DHT22;57257;48.408;-4.498;2024-02-14T10:30:06;16.57;73.48
69944;DHT22;57257;48.408;-4.498;2024-02-14T10:32:44;16.76;72.87
69944;DHT22;57257;48.408;-4.498;2024-02-14T10:35:13;16.79;72.34
69944;DHT22;57257;48.408;-4.498;2024-02-14T10:37:39;16.72;72.79
69944;DHT22;57257;48.408;-4.498;2024-02-14T10:40:05;16.61;72.27
69944;DHT22;57257;48.408;-4.498;2024-02-14T10:42:32;16.35;72.38
69944;DHT22;57257;48.408;-4.498;2024-02-14T10:44:58;16.14;73.13
69944;DHT22;57257;48.408;-4.498;2024-02-14T10:47:30;16.06;73.48
69944;DHT22;57257;48.408;-4.498;2024-02-14T10:50:00;15.96;73.73
69944;DHT22;57257;48.408;-4.498;2024-02-14T10:52:31;15.91;73.90
69944;DHT22;57257;48.408;-4.498;2024-02-14T10:54:59;15.82;73.72
69944;DHT22;57257;48.408;-4.498;2024-02-14T10:57:27;15.74;74.11
69944;DHT22;57257;48.408;-4.498;2024-02-14T10:59:54;15.73;74.20
69944;DHT22;57257;48.408;-4.498;2024-02-14T11:02:22;15.67;74.16
69944;DHT22;57257;48.408;-4.498;2024-02-14T11:04:49;15.73;74.53
69944;DHT22;57257;48.408;-4.498;2024-02-14T11:07:20;15.66;74.58
69944;DHT22;57257;48.408;-4.498;2024-02-14T11:09:45;15.67;74.94
69944;DHT22;57257;48.408;-4.498;2024-02-14T11:12:11;15.79;74.45
69944;DHT22;57257;48.408;-4.498;2024-02-14T11:14:37;15.79;74.23
69944;DHT22;57257;48.408;-4.498;2024-02-14T11:17:13;15.79;74.50
69944;DHT22;57257;48.408;-4.498;2024-02-14T11:19:38;15.77;74.70
69944;DHT22;57257;48.408;-4.498;2024-02-14T11:22:12;15.83;74.61
69944;DHT22;57257;48.408;-4.498;2024-02-14T11:24:38;15.83;74.44
69944;DHT22;57257;48.408;-4.498;2024-02-14T11:27:10;15.83;74.50
69944;DHT22;57257;48.408;-4.498;2024-02-14T11:29:38;15.89;74.65
69944;DHT22;57257;48.408;-4.498;2024-02-14T11:32:06;15.94;74.35
69944;DHT22;57257;48.408;-4.498;2024-02-14T11:34:34;16.01;74.57
69944;DHT22;57257;48.408;-4.498;2024-02-14T11:36:59;16.10;74.48
69944;DHT22;57257;48.408;-4.498;2024-02-14T11:39:28;16.08;74.26
69944;DHT22;57257;48.408;-4.498;2024-02-14T11:41:53;16.10;74.62
69944;DHT22;57257;48.408;-4.498;2024-02-14T11:44:19;16.14;74.32
69944;DHT22;57257;48.408;-4.498;2024-02-14T11:46:47;16.13;74.25
69944;DHT22;57257;48.408;-4.498;2024-02-14T11:49:13;16.14;74.09
69944;DHT22;57257;48.408;-4.498;2024-02-14T11:51:38;16.04;73.84
69944;DHT22;57257;48.408;-4.498;2024-02-14T11:54:06;16.00;73.74
69944;DHT22;57257;48.408;-4.498;2024-02-14T11:56:37;16.00;73.87
69944;DHT22;57257;48.408;-4.498;2024-02-14T11:59:04;16.00;73.79
69944;DHT22;57257;48.408;-4.498;2024-02-14T12:01:34;15.96;73.85
69944;DHT22;57257;48.408;-4.498;2024-02-14T12:04:01;15.94;73.87
69944;DHT22;57257;48.408;-4.498;2024-02-14T12:06:30;15.94;73.94
69944;DHT22;57257;48.408;-4.498;2024-02-14T12:09:06;15.90;74.06
69944;DHT22;57257;48.408;-4.498;2024-02-14T12:11:36;15.93;74.22
69944;DHT22;57257;48.408;-4.498;2024-02-14T12:14:08;15.93;74.44
69944;DHT22;57257;48.408;-4.498;2024-02-14T12:16:34;15.91;74.65
69944;DHT22;57257;48.408;-4.498;2024-02-14T12:19:08;15.96;74.81
69944;DHT22;57257;48.408;-4.498;2024-02-14T12:21:38;15.96;74.79
69944;DHT22;57257;48.408;-4.498;2024-02-14T12:24:07;15.94;74.55
69944;DHT22;57257;48.408;-4.498;2024-02-14T12:26:34;15.91;74.65
69944;DHT22;57257;48.408;-4.498;2024-02-14T12:29:03;15.89;74.64
69944;DHT22;57257;48.408;-4.498;2024-02-14T12:31:29;15.87;74.74
69944;DHT22;57257;48.408;-4.498;2024-02-14T12:33:56;15.89;74.93
69944;DHT22;57257;48.408;-4.498;2024-02-14T12:36:25;15.84;74.86
69944;DHT22;57257;48.408;-4.498;2024-02-14T12:38:50;15.83;74.90
69944;DHT22;57257;48.408;-4.498;2024-02-14T12:41:18;15.79;74.99
69944;DHT22;57257;48.408;-4.498;2024-02-14T12:43:43;15.80;75.16
69944;DHT22;57257;48.408;-4.498;2024-02-14T12:46:09;15.80;75.00
69944;DHT22;57257;48.408;-4.498;2024-02-14T12:48:35;15.77;75.06
69944;DHT22;57257;48.408;-4.498;2024-02-14T12:51:00;15.70;75.06
69944;DHT22;57257;48.408;-4.498;2024-02-14T12:53:26;15.70;75.47
69944;DHT22;57257;48.408;-4.498;2024-02-14T12:55:52;15.77;75.57
69944;DHT22;57257;48.408;-4.498;2024-02-14T12:58:19;15.80;75.64
69944;DHT22;57257;48.408;-4.498;2024-02-14T13:00:48;15.91;75.73
69944;DHT22;57257;48.408;-4.498;2024-02-14T13:03:13;16.06;75.78
69944;DHT22;57257;48.408;-4.498;2024-02-14T13:05:39;16.14;75.65
69944;DHT22;57257;48.408;-4.498;2024-02-14T13:08:05;16.16;75.10
69944;DHT22;57257;48.408;-4.498;2024-02-14T13:10:31;16.06;75.22
69944;DHT22;57257;48.408;-4.498;2024-02-14T13:12:57;16.00;75.50
69944;DHT22;57257;48.408;-4.498;2024-02-14T13:15:22;15.96;75.42
69944;DHT22;57257;48.408;-4.498;2024-02-14T13:17:48;15.87;75.67
69944;DHT22;57257;48.408;-4.498;2024-02-14T13:20:14;15.71;76.10
69944;DHT22;57257;48.408;-4.498;2024-02-14T13:22:41;15.67;76.36
69944;DHT22;57257;48.408;-4.498;2024-02-14T13:25:08;15.66;76.48
69944;DHT22;57257;48.408;-4.498;2024-02-14T13:27:34;15.63;76.64
69944;DHT22;57257;48.408;-4.498;2024-02-14T13:30:04;15.57;76.93
69944;DHT22;57257;48.408;-4.498;2024-02-14T13:32:30;15.54;77.12
69944;DHT22;57257;48.408;-4.498;2024-02-14T13:34:55;15.50;77.26
69944;DHT22;57257;48.408;-4.498;2024-02-14T13:37:21;15.56;77.38
69944;DHT22;57257;48.408;-4.498;2024-02-14T13:39:48;15.54;77.26
69944;DHT22;57257;48.408;-4.498;2024-02-14T13:42:13;15.44;77.49
69944;DHT22;57257;48.408;-4.498;2024-02-14T13:44:39;15.46;77.73
69944;DHT22;57257;48.408;-4.498;2024-02-14T13:47:04;15.42;77.67
69944;DHT22;57257;48.408;-4.498;2024-02-14T13:49:30;15.35;77.73
69944;DHT22;57257;48.408;-4.498;2024-02-14T13:51:55;15.42;78.28
69944;DHT22;57257;48.408;-4.498;2024-02-14T13:54:21;15.47;78.07
69944;DHT22;57257;48.408;-4.498;2024-02-14T13:56:49;15.43;78.00
69944;DHT22;57257;48.408;-4.498;2024-02-14T13:59:15;15.38;77.81
69944;DHT22;57257;48.408;-4.498;2024-02-14T14:01:42;15.32;78.17
69944;DHT22;57257;48.408;-4.498;2024-02-14T14:04:07;15.57;79.33
69944;DHT22;57257;48.408;-4.498;2024-02-14T14:06:33;15.71;79.34
69944;DHT22;57257;48.408;-4.498;2024-02-14T14:08:59;15.74;79.07
69944;DHT22;57257;48.408;-4.498;2024-02-14T14:11:25;15.87;79.01
69944;DHT22;57257;48.408;-4.498;2024-02-14T14:13:50;15.93;78.94
69944;DHT22;57257;48.408;-4.498;2024-02-14T14:16:16;16.08;78.87
69944;DHT22;57257;48.408;-4.498;2024-02-14T14:18:42;16.16;78.49
69944;DHT22;57257;48.408;-4.498;2024-02-14T14:21:08;16.21;78.23
69944;DHT22;57257;48.408;-4.498;2024-02-14T14:23:33;16.22;77.76
69944;DHT22;57257;48.408;-4.498;2024-02-14T14:25:59;16.24;77.81
69944;DHT22;57257;48.408;-4.498;2024-02-14T14:28:26;16.31;77.59
69944;DHT22;57257;48.408;-4.498;2024-02-14T14:30:51;16.35;77.42
69944;DHT22;57257;48.408;-4.498;2024-02-14T14:33:19;16.34;76.98
69944;DHT22;57257;48.408;-4.498;2024-02-14T14:35:44;16.31;77.04
69944;DHT22;57257;48.408;-4.498;2024-02-14T14:38:11;16.31;76.78
69944;DHT22;57257;48.408;-4.498;2024-02-14T14:40:36;16.24;76.91
69944;DHT22;57257;48.408;-4.498;2024-02-14T14:43:03;16.22;76.74
69944;DHT22;57257;48.408;-4.498;2024-02-14T14:45:28;16.22;76.87
69944;DHT22;57257;48.408;-4.498;2024-02-14T14:47:54;16.24;76.79
69944;DHT22;57257;48.408;-4.498;2024-02-14T14:50:19;16.22;76.86
69944;DHT22;57257;48.408;-4.498;2024-02-14T14:52:46;16.22;76.92
69944;DHT22;57257;48.408;-4.498;2024-02-14T14:55:15;16.21;76.74
69944;DHT22;57257;48.408;-4.498;2024-02-14T14:57:41;16.14;76.82
69944;DHT22;57257;48.408;-4.498;2024-02-14T15:00:08;16.18;77.10
69944;DHT22;57257;48.408;-4.498;2024-02-14T15:02:41;16.24;77.13
69944;DHT22;57257;48.408;-4.498;2024-02-14T15:05:11;16.25;77.05
69944;DHT22;57257;48.408;-4.498;2024-02-14T15:07:38;16.24;76.78
69944;DHT22;57257;48.408;-4.498;2024-02-14T15:10:04;16.24;76.33